Time;durP1;ratioP1;P1;durP2;ratioP2;P2;SDS_P1;SDS_P2;PMS_P1;PMS_P2;Temp;Humidity;BMP_temperature;BMP_pressure;BME280_temperature;BME280_humidity;BME280_pressure;Samples;Min_cycle;Max_cycle;Signal;HPM_P1;HPM_P2
2021/09/22 00:02:08;;;;;;;10.07;6.22;;;15.50;99.20;;;;;;5034442;28;20060;-66
2021/09/22 00:04:34;;;;;;;10.82;6.78;;;15.40;99.20;;;;;;5034278;28;20033;-66
2021/09/22 00:07:00;;;;;;;14.48;6.85;;;15.40;99.20;;;;;;5052299;28;20029;-66
2021/09/22 00:09:26;;;;;;;14.75;6.63;;;15.50;99.30;;;;;;5035748;28;20432;-66
2021/09/22 00:11:52;;;;;;;8.90;5.93;;;15.50;99.30;;;;;;5053320;28;20041;-66
2021/09/22 00:14:17;;;;;;;11.48;7.53;;;15.50;99.20;;;;;;5053895;28;20013;-66
2021/09/22 00:16:43;;;;;;;11.27;5.82;;;15.50;99.20;;;;;;5053278;28;20401;-66
2021/09/22 00:19:08;;;;;;;11.18;6.03;;;15.50;99.30;;;;;;5053034;28;20037;-66
2021/09/22 00:21:34;;;;;;;11.98;6.30;;;15.50;99.30;;;;;;5053730;28;20026;-66
2021/09/22 00:24:00;;;;;;;9.52;6.82;;;15.50;99.30;;;;;;5052720;28;20660;-66
2021/09/22 00:26:26;;;;;;;12.20;7.10;;;15.50;99.30;;;;;;5053490;28;20159;-66
2021/09/22 00:28:51;;;;;;;12.18;7.28;;;15.50;99.30;;;;;;5052373;28;20112;-65
2021/09/22 00:31:17;;;;;;;13.05;6.60;;;15.40;99.30;;;;;;5053070;28;20017;-66
2021/09/22 00:33:42;;;;;;;13.30;6.57;;;15.40;99.50;;;;;;5052642;28;20080;-65
2021/09/22 00:36:08;;;;;;;12.30;6.82;;;15.40;99.40;;;;;;5053323;28;20025;-65
2021/09/22 00:38:34;;;;;;;12.80;5.72;;;15.40;99.40;;;;;;5051924;28;20044;-65
2021/09/22 00:40:59;;;;;;;14.55;6.20;;;15.30;99.50;;;;;;5052945;28;20059;-64
2021/09/22 00:43:25;;;;;;;13.65;6.05;;;15.30;99.50;;;;;;5046384;28;20534;-65
2021/09/22 00:45:50;;;;;;;18.00;6.53;;;15.30;99.50;;;;;;5033280;28;20024;-65
2021/09/22 00:48:16;;;;;;;11.48;5.88;;;15.30;99.40;;;;;;5051338;28;20067;-65
2021/09/22 00:50:41;;;;;;;12.23;5.85;;;15.30;99.40;;;;;;5051493;28;20060;-65
2021/09/22 00:53:10;;;;;;;11.38;5.72;;;15.30;99.50;;;;;;5052018;28;20021;-65
2021/09/22 00:55:35;;;;;;;9.98;5.72;;;15.20;99.50;;;;;;5049476;28;20052;-65
2021/09/22 00:58:01;;;;;;;13.48;5.75;;;15.30;99.50;;;;;;5052417;28;20108;-65
2021/09/22 01:00:28;;;;;;;11.68;5.53;;;15.30;99.60;;;;;;5052362;28;20047;-65
2021/09/22 01:02:54;;;;;;;14.30;5.55;;;15.20;99.90;;;;;;5048159;28;20025;-66
2021/09/22 01:05:22;;;;;;;13.75;6.22;;;15.20;99.70;;;;;;5036338;28;20087;-66
2021/09/22 01:07:48;;;;;;;14.77;6.63;;;15.20;99.70;;;;;;5052310;28;20029;-65
2021/09/22 01:10:15;;;;;;;13.82;5.82;;;15.20;99.80;;;;;;5052408;28;20507;-65
2021/09/22 01:12:41;;;;;;;10.48;5.78;;;15.20;99.80;;;;;;5033473;28;20591;-65
2021/09/22 01:15:07;;;;;;;15.35;7.35;;;15.20;99.90;;;;;;5052325;28;20127;-64
2021/09/22 01:17:33;;;;;;;16.95;7.00;;;15.20;99.90;;;;;;5051907;28;20108;-64
2021/09/22 01:20:08;;;;;;;15.30;7.15;;;15.20;99.90;;;;;;5052150;28;20128;-65
2021/09/22 01:22:34;;;;;;;14.15;5.88;;;15.20;99.90;;;;;;5051059;28;20466;-65
2021/09/22 01:25:00;;;;;;;13.15;6.32;;;15.20;99.90;;;;;;5052553;28;20193;-64
2021/09/22 01:27:28;;;;;;;18.75;6.43;;;15.20;99.90;;;;;;5051947;28;20140;-65
2021/09/22 01:29:54;;;;;;;13.93;5.85;;;15.20;99.90;;;;;;5052653;28;20051;-65
2021/09/22 01:32:20;;;;;;;15.73;7.22;;;15.20;99.90;;;;;;5051591;28;20040;-65
2021/09/22 01:34:46;;;;;;;11.75;6.95;;;15.20;99.90;;;;;;5052575;28;20036;-65
2021/09/22 01:37:12;;;;;;;15.70;5.88;;;15.20;99.90;;;;;;5050882;28;20393;-65
2021/09/22 01:39:39;;;;;;;17.88;7.05;;;15.10;99.90;;;;;;5051603;28;20048;-65
2021/09/22 01:42:05;;;;;;;16.52;6.95;;;15.10;99.90;;;;;;5051294;28;20107;-65
2021/09/22 01:44:35;;;;;;;13.88;6.72;;;15.10;99.90;;;;;;5051911;28;20063;-65
2021/09/22 01:47:01;;;;;;;12.32;6.40;;;15.10;99.90;;;;;;5047493;28;20191;-65
2021/09/22 01:49:27;;;;;;;13.57;6.43;;;15.10;99.90;;;;;;5052172;28;20040;-65
2021/09/22 01:51:58;;;;;;;10.68;5.15;;;15.10;99.90;;;;;;5047143;28;20013;-65
2021/09/22 01:54:24;;;;;;;19.92;6.57;;;15.10;99.90;;;;;;5051311;28;20637;-64
2021/09/22 01:56:49;;;;;;;15.20;6.60;;;15.10;99.90;;;;;;5050918;28;20037;-65
2021/09/22 01:59:15;;;;;;;11.00;5.05;;;15.20;99.90;;;;;;5051934;28;20036;-66
2021/09/22 02:01:43;;;;;;;15.48;6.00;;;15.20;99.90;;;;;;5050955;28;20103;-66
2021/09/22 02:04:08;;;;;;;14.57;5.60;;;15.20;99.90;;;;;;5051360;28;20029;-66
2021/09/22 02:06:34;;;;;;;15.30;6.50;;;15.10;99.90;;;;;;5051185;28;20102;-66
2021/09/22 02:08:59;;;;;;;14.18;6.40;;;15.10;99.90;;;;;;5051572;28;20087;-64
2021/09/22 02:11:25;;;;;;;15.85;5.60;;;15.10;99.90;;;;;;5042261;28;20436;-65
2021/09/22 02:13:50;;;;;;;15.55;5.72;;;15.10;99.90;;;;;;5031531;28;20040;-67
2021/09/22 02:16:16;;;;;;;16.92;5.55;;;15.00;99.90;;;;;;5038811;28;20017;-67
2021/09/22 02:18:41;;;;;;;13.05;5.85;;;15.10;99.90;;;;;;5051596;28;20511;-65
2021/09/22 02:21:10;;;;;;;14.75;4.78;;;15.10;99.90;;;;;;5051223;28;20052;-66
2021/09/22 02:23:38;;;;;;;17.65;5.25;;;15.10;99.90;;;;;;5050885;28;20081;-66
2021/09/22 02:26:05;;;;;;;14.38;5.18;;;15.00;99.90;;;;;;5051215;28;20111;-65
2021/09/22 02:28:31;;;;;;;12.75;5.88;;;15.00;99.90;;;;;;5051084;28;20025;-66
2021/09/22 02:30:57;;;;;;;16.58;5.70;;;15.00;99.90;;;;;;5051435;28;20389;-66
2021/09/22 02:33:22;;;;;;;19.50;6.05;;;14.90;99.90;;;;;;5050628;28;20036;-66
2021/09/22 02:35:47;;;;;;;14.00;5.03;;;15.00;99.90;;;;;;5051148;28;20033;-66
2021/09/22 02:38:13;;;;;;;30.60;5.45;;;15.00;99.90;;;;;;5051087;28;20029;-66
2021/09/22 02:40:39;;;;;;;19.73;5.20;;;14.90;99.90;;;;;;5050615;28;20083;-66
2021/09/22 02:43:04;;;;;;;13.90;4.25;;;14.90;99.90;;;;;;5050986;28;20489;-67
2021/09/22 02:45:30;;;;;;;13.85;4.80;;;14.80;99.90;;;;;;5050430;28;20381;-67
2021/09/22 02:47:55;;;;;;;14.68;5.28;;;14.80;99.90;;;;;;5051221;28;20029;-67
2021/09/22 02:50:21;;;;;;;12.80;4.13;;;14.80;99.90;;;;;;5049412;28;20021;-67
2021/09/22 02:52:48;;;;;;;16.67;4.80;;;14.90;99.90;;;;;;5050652;28;20488;-66
2021/09/22 02:55:14;;;;;;;16.27;5.43;;;14.80;99.90;;;;;;5048746;28;20041;-66
2021/09/22 02:57:39;;;;;;;17.33;4.57;;;14.80;99.90;;;;;;5051769;28;20096;-66
2021/09/22 03:00:06;;;;;;;17.58;4.68;;;14.80;99.90;;;;;;5050004;28;20124;-66
2021/09/22 03:02:32;;;;;;;14.55;5.00;;;14.80;99.90;;;;;;5033333;28;20025;-66
2021/09/22 03:04:58;;;;;;;16.30;4.45;;;14.80;99.90;;;;;;5050410;28;20036;-66
2021/09/22 03:07:24;;;;;;;15.25;3.83;;;14.80;99.90;;;;;;5050468;28;20033;-66
2021/09/22 03:09:49;;;;;;;13.40;3.97;;;14.80;99.90;;;;;;5050385;28;20082;-65
2021/09/22 03:12:15;;;;;;;12.90;5.70;;;14.80;99.90;;;;;;5050612;28;20362;-66
2021/09/22 03:14:40;;;;;;;12.50;4.13;;;14.70;99.90;;;;;;5032280;28;20401;-67
2021/09/22 03:17:06;;;;;;;19.63;4.38;;;14.60;99.90;;;;;;5054755;28;20074;-67
2021/09/22 03:19:31;;;;;;;15.48;4.15;;;14.60;99.90;;;;;;5053873;28;20032;-67
2021/09/22 03:21:57;;;;;;;17.50;4.13;;;14.50;99.90;;;;;;5054687;28;20112;-67
2021/09/22 03:24:22;;;;;;;13.02;4.10;;;14.50;99.90;;;;;;5053929;28;20029;-66
2021/09/22 03:26:48;;;;;;;15.95;4.53;;;14.50;99.90;;;;;;5053933;28;20036;-66
2021/09/22 03:29:13;;;;;;;15.77;4.18;;;14.50;99.90;;;;;;5053710;28;20017;-66
2021/09/22 03:31:41;;;;;;;12.52;4.40;;;14.50;99.90;;;;;;5054709;28;20040;-67
2021/09/22 03:34:06;;;;;;;17.02;4.53;;;14.40;99.90;;;;;;5053731;28;20028;-67
2021/09/22 03:36:32;;;;;;;12.15;4.40;;;14.40;99.90;;;;;;5054227;28;20029;-67
2021/09/22 03:38:57;;;;;;;13.60;3.60;;;14.40;99.90;;;;;;5053627;28;20044;-67
2021/09/22 03:41:23;;;;;;;16.15;4.38;;;14.40;99.90;;;;;;5054344;28;20158;-67
2021/09/22 03:43:48;;;;;;;16.20;4.05;;;14.30;99.90;;;;;;5053720;28;20040;-66
2021/09/22 03:46:14;;;;;;;18.92;4.43;;;14.40;99.90;;;;;;5054242;28;20056;-65
2021/09/22 03:48:39;;;;;;;14.75;4.90;;;14.40;99.90;;;;;;5053630;28;20025;-65
2021/09/22 03:51:05;;;;;;;16.25;4.18;;;14.30;99.90;;;;;;5054018;28;20024;-65
2021/09/22 03:53:30;;;;;;;19.63;4.00;;;14.30;99.90;;;;;;5052728;28;20126;-65
2021/09/22 03:55:56;;;;;;;14.30;3.80;;;14.30;99.90;;;;;;5053714;28;20451;-65
2021/09/22 03:58:21;;;;;;;14.73;4.35;;;14.30;99.90;;;;;;5052540;28;20503;-66
2021/09/22 04:00:47;;;;;;;15.38;4.00;;;14.30;99.90;;;;;;5054457;28;20025;-66
2021/09/22 04:03:12;;;;;;;20.40;3.95;;;14.20;99.90;;;;;;5053368;28;20060;-65
2021/09/22 04:05:38;;;;;;;19.95;4.13;;;14.20;99.90;;;;;;5054293;28;20025;-65
2021/09/22 04:08:04;;;;;;;16.15;4.97;;;14.20;99.90;;;;;;5047049;28;20025;-65
2021/09/22 04:10:29;;;;;;;16.60;3.97;;;14.20;99.90;;;;;;5042414;28;20115;-65
2021/09/22 04:12:55;;;;;;;16.83;4.32;;;14.20;99.90;;;;;;5053602;28;20528;-65
2021/09/22 04:15:20;;;;;;;13.38;3.97;;;14.20;99.90;;;;;;5053941;28;20028;-65
2021/09/22 04:17:46;;;;;;;19.83;4.43;;;14.20;99.90;;;;;;5053411;28;20021;-65
2021/09/22 04:20:12;;;;;;;16.15;4.72;;;14.10;99.90;;;;;;5053577;28;20124;-66
2021/09/22 04:22:41;;;;;;;13.23;3.83;;;14.10;99.90;;;;;;5053203;28;20151;-65
2021/09/22 04:25:09;;;;;;;19.42;5.70;;;14.10;99.90;;;;;;5053638;28;20029;-65
2021/09/22 04:27:35;;;;;;;15.52;4.65;;;14.10;99.90;;;;;;5052544;28;20033;-65
2021/09/22 04:30:02;;;;;;;14.07;4.20;;;14.10;99.90;;;;;;5052232;28;20028;-66
2021/09/22 04:32:27;;;;;;;17.63;5.43;;;14.10;99.90;;;;;;5052020;28;20037;-66
2021/09/22 04:34:53;;;;;;;17.33;4.50;;;14.10;99.90;;;;;;5053306;28;20052;-66
2021/09/22 04:37:18;;;;;;;13.68;3.55;;;14.10;99.90;;;;;;5052458;28;20025;-65
2021/09/22 04:39:44;;;;;;;15.80;3.75;;;14.10;99.90;;;;;;5053134;28;20065;-66
2021/09/22 04:42:09;;;;;;;20.23;4.63;;;14.20;99.90;;;;;;5052708;28;20466;-66
2021/09/22 04:44:35;;;;;;;13.35;4.70;;;14.10;99.90;;;;;;5053209;28;20024;-67
2021/09/22 04:47:00;;;;;;;18.40;4.88;;;14.20;99.90;;;;;;5028082;28;20411;-66
2021/09/22 04:49:26;;;;;;;15.88;4.50;;;14.20;99.90;;;;;;5033248;28;20111;-66
2021/09/22 04:51:51;;;;;;;14.98;5.10;;;14.20;99.90;;;;;;5038475;28;20104;-65
2021/09/22 04:54:17;;;;;;;19.67;6.30;;;14.20;99.90;;;;;;5053262;28;20107;-66
2021/09/22 04:56:42;;;;;;;15.57;4.95;;;14.20;99.90;;;;;;5047510;28;20413;-66
2021/09/22 04:59:08;;;;;;;20.15;4.63;;;14.20;99.90;;;;;;5050069;28;20032;-66
2021/09/22 05:01:33;;;;;;;16.13;5.30;;;14.20;99.90;;;;;;5033040;28;20111;-66
2021/09/22 05:03:59;;;;;;;16.75;4.28;;;14.30;99.90;;;;;;5015832;28;20045;-66
2021/09/22 05:06:25;;;;;;;19.15;4.80;;;14.30;99.90;;;;;;5033683;28;20485;-66
2021/09/22 05:08:50;;;;;;;15.18;4.45;;;14.30;99.90;;;;;;5053523;28;20387;-66
2021/09/22 05:11:16;;;;;;;19.15;5.40;;;14.30;99.90;;;;;;5051716;28;20501;-66
2021/09/22 05:13:42;;;;;;;19.42;5.22;;;14.30;99.90;;;;;;5053387;28;20385;-66
2021/09/22 05:16:07;;;;;;;15.85;4.53;;;14.30;99.90;;;;;;5051860;28;20039;-66
2021/09/22 05:18:33;;;;;;;18.13;5.15;;;14.20;99.90;;;;;;5052764;28;20029;-66
2021/09/22 05:20:58;;;;;;;18.55;5.45;;;14.30;99.90;;;;;;5053032;28;20036;-67
2021/09/22 05:23:24;;;;;;;19.73;5.55;;;14.30;99.90;;;;;;5046624;28;20026;-65
2021/09/22 05:25:49;;;;;;;12.65;5.32;;;14.30;99.90;;;;;;5027154;28;20021;-66
2021/09/22 05:28:15;;;;;;;21.50;5.07;;;14.40;99.90;;;;;;5053490;28;20059;-66
2021/09/22 05:30:40;;;;;;;19.80;6.25;;;14.50;99.90;;;;;;5049499;28;20025;-66
2021/09/22 05:33:11;;;;;;;17.67;4.22;;;14.50;99.90;;;;;;5052159;28;20413;-67
2021/09/22 05:35:38;;;;;;;18.33;5.18;;;14.50;99.90;;;;;;5052649;28;20104;-64
2021/09/22 05:38:04;;;;;;;19.50;6.38;;;14.50;99.90;;;;;;5050636;28;20028;-66
2021/09/22 05:40:29;;;;;;;21.88;4.97;;;14.60;99.90;;;;;;5051572;28;20442;-65
2021/09/22 05:42:55;;;;;;;19.63;4.97;;;14.60;99.90;;;;;;5045951;28;20021;-65
2021/09/22 05:45:21;;;;;;;13.98;5.05;;;14.60;99.90;;;;;;5052197;28;20029;-65
2021/09/22 05:47:46;;;;;;;21.95;5.03;;;14.60;99.90;;;;;;5046419;28;20025;-65
2021/09/22 05:50:12;;;;;;;13.93;4.18;;;14.70;99.90;;;;;;5050335;28;20400;-65
2021/09/22 05:52:37;;;;;;;19.08;5.15;;;14.70;99.90;;;;;;5051752;28;20017;-64
2021/09/22 05:55:03;;;;;;;15.07;5.15;;;14.70;99.90;;;;;;5049136;28;20159;-64
2021/09/22 05:57:29;;;;;;;16.75;4.25;;;14.70;99.90;;;;;;5023748;28;20489;-65
2021/09/22 05:59:54;;;;;;;18.80;4.30;;;14.70;99.90;;;;;;5049087;28;20036;-66
2021/09/22 06:02:20;;;;;;;17.95;5.00;;;14.70;99.90;;;;;;5049753;28;20025;-65
2021/09/22 06:04:45;;;;;;;23.95;5.18;;;14.80;99.80;;;;;;5051117;28;20047;-65
2021/09/22 06:07:11;;;;;;;16.23;5.38;;;14.80;99.70;;;;;;5050625;28;20485;-64
2021/09/22 06:09:36;;;;;;;20.27;5.35;;;14.80;99.70;;;;;;5050607;28;20024;-65
2021/09/22 06:12:02;;;;;;;15.85;4.70;;;14.70;99.70;;;;;;5052005;28;20413;-65
2021/09/22 06:14:28;;;;;;;15.07;4.60;;;14.70;99.80;;;;;;5049287;28;20033;-65
2021/09/22 06:16:53;;;;;;;20.60;5.20;;;14.80;99.80;;;;;;5046855;28;20021;-65
2021/09/22 06:19:19;;;;;;;19.52;5.50;;;14.90;99.80;;;;;;5026216;28;20025;-65
2021/09/22 06:21:44;;;;;;;16.35;4.60;;;14.90;99.60;;;;;;5047157;28;20025;-64
2021/09/22 06:24:10;;;;;;;20.52;4.53;;;14.80;99.60;;;;;;5051660;28;20107;-65
2021/09/22 06:26:35;;;;;;;16.23;4.75;;;14.90;99.60;;;;;;5050920;28;20074;-64
2021/09/22 06:29:01;;;;;;;20.90;5.30;;;15.00;99.60;;;;;;5049156;28;20045;-64
2021/09/22 06:31:26;;;;;;;19.27;5.30;;;15.00;99.50;;;;;;5051156;28;20450;-65
2021/09/22 06:33:52;;;;;;;15.15;4.47;;;15.10;99.50;;;;;;5051221;28;20036;-64
2021/09/22 06:36:18;;;;;;;20.40;5.53;;;15.10;99.40;;;;;;5051226;28;20470;-64
2021/09/22 06:38:43;;;;;;;15.10;6.10;;;15.10;99.40;;;;;;5050679;28;20049;-64
2021/09/22 06:41:09;;;;;;;25.50;6.75;;;15.10;99.40;;;;;;5031686;28;20033;-64
2021/09/22 06:43:34;;;;;;;17.15;5.90;;;15.20;99.40;;;;;;5049890;28;20048;-64
2021/09/22 06:46:00;;;;;;;19.65;6.10;;;15.20;99.30;;;;;;5049759;28;20121;-64
2021/09/22 06:48:25;;;;;;;19.60;5.95;;;15.30;99.30;;;;;;5050532;28;20066;-64
2021/09/22 06:50:51;;;;;;;20.20;6.60;;;15.30;99.40;;;;;;5049517;28;20095;-65
2021/09/22 06:53:17;;;;;;;21.17;6.45;;;15.30;99.20;;;;;;5050546;28;20025;-65
2021/09/22 06:55:42;;;;;;;19.10;6.32;;;15.30;99.20;;;;;;5031379;28;20382;-65
2021/09/22 06:58:07;;;;;;;18.42;6.28;;;15.30;99.10;;;;;;5051097;28;20477;-65
2021/09/22 07:00:35;;;;;;;19.40;5.22;;;15.30;99.20;;;;;;5048236;28;20032;-65
2021/09/22 07:03:02;;;;;;;16.70;5.45;;;15.30;99.10;;;;;;5050814;28;20037;-65
2021/09/22 07:05:28;;;;;;;16.95;5.70;;;15.40;99.20;;;;;;5049555;28;20060;-66
2021/09/22 07:07:53;;;;;;;19.52;5.82;;;15.40;99.10;;;;;;5048392;28;20076;-65
2021/09/22 07:10:19;;;;;;;19.13;6.55;;;15.40;99.10;;;;;;5036351;28;20485;-64
2021/09/22 07:12:45;;;;;;;13.65;5.18;;;15.50;99.00;;;;;;5037811;28;20027;-64
2021/09/22 07:15:11;;;;;;;19.45;5.53;;;15.50;98.90;;;;;;5047634;28;20021;-65
2021/09/22 07:17:37;;;;;;;16.90;5.70;;;15.50;98.80;;;;;;5032452;28;20422;-65
2021/09/22 07:20:04;;;;;;;16.90;5.35;;;15.40;98.80;;;;;;5047490;28;20132;-64
2021/09/22 07:22:29;;;;;;;14.98;5.30;;;15.40;98.80;;;;;;5050276;28;20530;-64
2021/09/22 07:24:55;;;;;;;18.17;5.57;;;15.40;98.90;;;;;;5043627;28;20018;-65
2021/09/22 07:27:21;;;;;;;18.42;4.65;;;15.40;98.80;;;;;;5030751;28;20022;-65
2021/09/22 07:29:46;;;;;;;15.82;5.50;;;15.40;98.90;;;;;;5042751;28;20410;-65
2021/09/22 07:32:12;;;;;;;18.40;5.22;;;15.40;98.90;;;;;;5048085;28;20382;-64
2021/09/22 07:34:37;;;;;;;16.23;4.75;;;15.50;98.90;;;;;;5047863;28;20033;-63
2021/09/22 07:37:07;;;;;;;17.48;6.13;;;15.60;98.90;;;;;;5048865;28;20029;-63
2021/09/22 07:39:34;;;;;;;16.77;4.63;;;15.60;98.80;;;;;;5048564;28;20036;-64
2021/09/22 07:42:00;;;;;;;19.92;5.45;;;15.60;98.70;;;;;;5030958;28;20066;-65
2021/09/22 07:44:25;;;;;;;17.85;5.22;;;15.60;98.70;;;;;;5043384;28;20555;-64
2021/09/22 07:46:51;;;;;;;17.98;5.63;;;15.60;98.70;;;;;;5018968;28;20029;-64
2021/09/22 07:49:17;;;;;;;28.65;6.30;;;15.70;98.60;;;;;;5043598;28;20026;-64
2021/09/22 07:51:43;;;;;;;15.18;4.50;;;15.70;98.60;;;;;;5034280;28;20025;-64
2021/09/22 07:54:08;;;;;;;12.63;3.92;;;15.80;98.60;;;;;;5051004;28;20481;-64
2021/09/22 07:56:34;;;;;;;17.13;4.63;;;15.80;98.60;;;;;;5050211;28;20086;-64
2021/09/22 07:58:59;;;;;;;16.30;5.25;;;15.90;98.60;;;;;;5046380;28;20013;-64
2021/09/22 08:01:25;;;;;;;19.40;5.82;;;15.90;98.50;;;;;;5050348;28;20495;-64
2021/09/22 08:03:50;;;;;;;19.17;4.22;;;15.90;98.30;;;;;;5049823;28;20021;-64
2021/09/22 08:06:15;;;;;;;23.75;6.63;;;16.00;98.30;;;;;;5050214;28;20029;-65
2021/09/22 08:08:41;;;;;;;18.38;4.80;;;16.00;98.30;;;;;;5052393;28;20056;-65
2021/09/22 08:11:06;;;;;;;19.63;5.85;;;16.00;98.40;;;;;;5050258;28;20489;-65
2021/09/22 08:13:32;;;;;;;13.93;4.90;;;16.10;98.30;;;;;;5034131;28;20028;-65
2021/09/22 08:15:57;;;;;;;19.50;5.97;;;16.10;98.20;;;;;;5039882;28;20025;-65
2021/09/22 08:18:23;;;;;;;15.00;5.03;;;16.10;98.10;;;;;;5048913;28;20024;-64
2021/09/22 08:20:48;;;;;;;12.90;5.35;;;16.20;98.20;;;;;;5032015;28;20446;-65
2021/09/22 08:23:14;;;;;;;17.77;5.05;;;16.20;98.10;;;;;;5050058;28;20436;-65
2021/09/22 08:25:40;;;;;;;19.60;5.20;;;16.20;98.10;;;;;;5052889;28;20028;-65
2021/09/22 08:28:05;;;;;;;16.08;5.25;;;16.30;98.20;;;;;;5053105;28;20091;-65
2021/09/22 08:30:31;;;;;;;20.05;4.80;;;16.30;98.00;;;;;;5037470;28;20650;-64
2021/09/22 08:32:56;;;;;;;20.73;6.55;;;16.40;97.90;;;;;;5049291;28;20032;-64
2021/09/22 08:35:22;;;;;;;20.40;5.85;;;16.40;97.80;;;;;;5053542;28;20168;-64
2021/09/22 08:37:47;;;;;;;16.98;5.20;;;16.40;97.80;;;;;;5035479;28;20096;-64
2021/09/22 08:40:13;;;;;;;24.08;5.93;;;16.40;97.80;;;;;;5052055;28;20059;-65
2021/09/22 08:42:39;;;;;;;12.48;4.38;;;16.30;97.70;;;;;;5044975;28;20021;-65
2021/09/22 08:45:06;;;;;;;18.55;5.93;;;16.40;97.80;;;;;;5053416;28;20117;-64
2021/09/22 08:47:33;;;;;;;16.88;5.13;;;16.40;97.80;;;;;;5052249;28;20033;-64
2021/09/22 08:49:59;;;;;;;18.45;4.68;;;16.50;97.80;;;;;;5051103;28;20572;-64
2021/09/22 08:52:25;;;;;;;15.65;5.38;;;16.50;98.00;;;;;;5052973;28;20074;-65
2021/09/22 08:54:51;;;;;;;23.63;5.85;;;16.60;97.70;;;;;;5052699;28;20049;-64
2021/09/22 08:57:16;;;;;;;15.30;5.15;;;16.60;97.60;;;;;;5052787;28;20071;-64
2021/09/22 08:59:42;;;;;;;16.10;4.63;;;16.50;97.50;;;;;;5053349;28;20037;-65
2021/09/22 09:02:15;;;;;;;18.42;5.43;;;16.60;97.40;;;;;;5053480;28;20021;-64
2021/09/22 09:04:44;;;;;;;16.75;5.68;;;16.70;97.50;;;;;;5052898;28;20078;-64
2021/09/22 09:07:10;;;;;;;18.75;5.10;;;16.70;97.40;;;;;;5053158;28;20036;-64
2021/09/22 09:09:41;;;;;;;18.05;5.28;;;16.80;97.50;;;;;;5053143;28;20025;-64
2021/09/22 09:12:33;;;;;;;15.27;5.00;;;16.80;97.30;;;;;;5052956;28;20032;-65
2021/09/22 09:15:03;;;;;;;24.83;5.55;;;16.80;96.90;;;;;;5039796;28;20393;-65
2021/09/22 09:17:44;;;;;;;22.10;6.05;;;16.80;97.00;;;;;;5043694;28;20025;-65
2021/09/22 09:20:18;;;;;;;18.00;4.53;;;16.80;97.20;;;;;;5052505;28;20044;-65
2021/09/22 09:23:05;;;;;;;;;;;16.80;97.10;;;;;;5034439;28;20769;-65
2021/09/22 09:25:35;;;;;;;21.85;5.68;;;16.90;97.20;;;;;;5051822;28;19908;-65
2021/09/22 09:28:16;;;;;;;16.25;3.97;;;17.00;97.00;;;;;;5025419;28;20041;-65
2021/09/22 09:30:45;;;;;;;16.48;4.65;;;17.00;97.00;;;;;;5051271;28;20055;-65
2021/09/22 09:33:29;;;;;;;17.65;4.95;;;17.10;97.20;;;;;;5051551;28;20039;-63
2021/09/22 09:35:54;;;;;;;17.25;4.40;;;17.30;97.10;;;;;;5052117;28;20025;-65
2021/09/22 09:38:20;;;;;;;15.63;5.82;;;17.30;96.90;;;;;;5045563;28;20036;-64
2021/09/22 09:40:45;;;;;;;16.27;4.28;;;17.30;96.80;;;;;;5049191;28;20553;-66
2021/09/22 09:43:11;;;;;;;18.02;6.10;;;17.30;96.70;;;;;;5032134;28;20026;-65
2021/09/22 09:45:39;;;;;;;18.83;4.50;;;17.40;96.80;;;;;;5050200;28;20082;-64
2021/09/22 09:48:05;;;;;;;19.33;5.68;;;17.40;96.80;;;;;;5050861;28;20099;-64
2021/09/22 09:50:40;;;;;;;18.63;5.10;;;17.50;96.70;;;;;;5051641;28;20029;-64
2021/09/22 09:53:06;;;;;;;17.02;4.90;;;17.60;96.40;;;;;;5052262;28;20154;-64
2021/09/22 09:55:36;;;;;;;15.05;4.05;;;17.60;96.30;;;;;;5048992;28;20556;-64
2021/09/22 09:58:02;;;;;;;18.75;4.47;;;17.60;96.30;;;;;;5050742;28;20242;-64
2021/09/22 10:00:39;;;;;;;14.68;3.95;;;17.50;96.10;;;;;;5049698;28;20128;-65
2021/09/22 10:03:21;;;;;;;16.15;4.43;;;17.50;96.20;;;;;;5051468;28;20025;-65
2021/09/22 10:05:48;;;;;;;16.17;4.60;;;17.60;96.00;;;;;;5050936;28;20029;-65
2021/09/22 10:08:15;;;;;;;12.05;4.03;;;17.60;96.20;;;;;;5050761;28;20110;-65
2021/09/22 10:10:43;;;;;;;12.50;4.07;;;17.70;96.20;;;;;;5051395;28;20511;-65
2021/09/22 10:13:10;;;;;;;12.98;3.72;;;17.80;96.40;;;;;;5050931;28;20037;-64
2021/09/22 10:15:37;;;;;;;12.95;3.85;;;17.90;96.00;;;;;;5050084;28;20085;-64
2021/09/22 10:18:04;;;;;;;12.73;5.05;;;18.00;96.20;;;;;;5050676;28;20108;-66
2021/09/22 10:20:30;;;;;;;15.85;4.97;;;18.00;95.70;;;;;;5050707;28;20075;-65
2021/09/22 10:22:55;;;;;;;12.88;3.95;;;18.10;95.70;;;;;;5033693;28;20048;-65
2021/09/22 10:25:23;;;;;;;15.25;4.45;;;18.10;95.60;;;;;;5049713;28;20025;-65
2021/09/22 10:27:49;;;;;;;15.52;4.88;;;18.10;95.50;;;;;;5045936;28;20029;-65
2021/09/22 10:30:15;;;;;;;17.80;5.43;;;18.20;95.60;;;;;;5051387;28;20496;-65
2021/09/22 10:32:43;;;;;;;19.77;4.45;;;18.40;95.70;;;;;;5052411;28;20540;-66
2021/09/22 10:35:26;;;;;;;17.23;4.53;;;18.50;95.70;;;;;;5051409;28;20032;-65
2021/09/22 10:37:54;;;;;;;14.00;4.70;;;18.60;95.60;;;;;;5050700;28;20402;-65
2021/09/22 10:40:49;;;;;;;13.77;4.20;;;18.70;95.10;;;;;;5051046;28;20129;-65
2021/09/22 10:43:14;;;;;;;16.48;4.32;;;18.70;94.80;;;;;;5051437;28;20328;-65
2021/09/22 10:45:44;;;;;;;16.98;4.43;;;18.80;94.40;;;;;;5053646;28;20041;-64
2021/09/22 10:48:20;;;;;;;14.68;3.72;;;18.80;94.20;;;;;;5051389;28;20021;-65
2021/09/22 10:50:52;;;;;;;13.70;4.20;;;18.80;94.20;;;;;;5050066;28;20021;-65
2021/09/22 10:53:36;;;;;;;12.95;3.78;;;18.80;93.90;;;;;;5050553;28;20071;-65
2021/09/22 10:56:07;;;;;;;18.38;5.43;;;18.90;93.90;;;;;;5050648;28;20048;-65
2021/09/22 10:58:56;;;;;;;12.63;3.85;;;19.00;94.00;;;;;;5047478;28;20033;-65
2021/09/22 11:01:40;;;;;;;16.23;4.82;;;19.00;94.00;;;;;;5047756;28;20140;-65
2021/09/22 11:04:09;;;;;;;14.70;4.07;;;19.10;93.80;;;;;;5051061;28;20497;-64
2021/09/22 11:06:51;;;;;;;12.23;4.43;;;19.10;93.00;;;;;;5049308;28;20037;-64
2021/09/22 11:09:23;;;;;;;12.40;4.18;;;19.10;93.20;;;;;;5051314;28;20450;-65
2021/09/22 11:12:03;;;;;;;14.82;4.88;;;19.20;93.20;;;;;;5047919;28;20029;-65
2021/09/22 11:14:44;;;;;;;13.30;4.35;;;19.30;93.20;;;;;;5037814;28;20025;-66
2021/09/22 11:17:13;;;;;;;13.02;4.00;;;19.30;92.50;;;;;;5040999;28;20029;-64
2021/09/22 11:19:41;;;;;;;15.90;4.38;;;19.30;92.50;;;;;;5049516;28;20037;-64
2021/09/22 11:22:11;;;;;;;16.00;4.88;;;19.30;92.20;;;;;;5045175;28;20029;-64
2021/09/22 11:24:37;;;;;;;11.45;3.45;;;19.30;92.30;;;;;;5049773;28;20445;-64
2021/09/22 11:27:10;;;;;;;19.90;4.22;;;19.30;92.20;;;;;;5049519;28;20110;-64
2021/09/22 11:29:39;;;;;;;9.73;3.40;;;19.40;91.90;;;;;;5050572;28;20037;-64
2021/09/22 11:32:27;;;;;;;13.95;3.72;;;19.40;91.90;;;;;;5046554;28;20065;-64
2021/09/22 11:34:54;;;;;;;13.65;3.60;;;19.50;91.60;;;;;;5057034;28;20035;-64
2021/09/22 11:37:19;;;;;;;13.15;3.70;;;19.40;91.10;;;;;;5056537;28;20033;-64
2021/09/22 11:39:45;;;;;;;9.38;3.92;;;19.40;91.10;;;;;;5074334;28;20029;-64
2021/09/22 11:42:12;;;;;;;13.15;3.38;;;19.50;91.10;;;;;;5039391;28;20028;-63
2021/09/22 11:44:39;;;;;;;13.18;4.00;;;19.50;91.00;;;;;;5053514;28;20433;-63
2021/09/22 11:47:07;;;;;;;15.35;3.67;;;19.40;91.00;;;;;;5052108;28;20029;-64
2021/09/22 11:49:41;;;;;;;12.18;4.00;;;19.30;90.90;;;;;;5051270;28;20106;-64
2021/09/22 11:52:09;;;;;;;;;;;19.30;90.90;;;;;;5059676;28;20025;-64
2021/09/22 11:54:35;;;;;;;12.48;4.05;;;19.20;91.00;;;;;;5049063;28;19916;-64
2021/09/22 11:57:05;;;;;;;10.05;3.75;;;19.20;90.70;;;;;;5039847;28;20053;-64
2021/09/22 11:59:35;;;;;;;11.68;3.25;;;19.10;90.70;;;;;;5057386;28;20456;-63
2021/09/22 12:02:02;;;;;;;10.23;3.63;;;19.00;90.50;;;;;;5065275;28;20029;-64
2021/09/22 12:04:43;;;;;;;12.82;3.22;;;19.10;90.70;;;;;;5047519;28;20070;-64
2021/09/22 12:07:09;;;;;;;10.90;3.30;;;19.00;90.80;;;;;;5058002;28;20068;-63
2021/09/22 12:09:42;;;;;;;12.18;3.75;;;19.10;90.50;;;;;;5053020;28;20056;-65
2021/09/22 12:12:16;;;;;;;11.40;3.85;;;19.10;90.50;;;;;;5059601;28;20050;-64
2021/09/22 12:14:53;;;;;;;14.30;3.45;;;19.20;90.00;;;;;;5054276;28;20041;-64
2021/09/22 12:17:22;;;;;;;11.30;3.80;;;19.20;90.00;;;;;;5059781;28;20056;-64
2021/09/22 12:19:49;;;;;;;10.55;3.25;;;19.30;89.70;;;;;;5057972;28;20074;-65
2021/09/22 12:22:21;;;;;;;11.68;3.35;;;19.40;90.00;;;;;;5061818;28;20028;-64
2021/09/22 12:24:47;;;;;;;12.45;4.13;;;19.50;89.90;;;;;;5067158;28;20039;-65
2021/09/22 12:27:19;;;;;;;12.02;3.40;;;19.50;89.20;;;;;;5046429;28;20017;-64
2021/09/22 12:29:56;;;;;;;10.85;3.47;;;19.50;88.60;;;;;;5056635;28;20047;-63
2021/09/22 12:32:24;;;;;;;7.03;2.47;;;19.50;88.20;;;;;;5059584;28;20040;-63
2021/09/22 12:34:50;;;;;;;16.05;3.50;;;19.50;88.30;;;;;;5058559;28;20100;-62
2021/09/22 12:37:22;;;;;;;11.05;2.83;;;19.60;88.00;;;;;;5047289;28;20053;-64
2021/09/22 12:39:54;;;;;;;9.20;3.75;;;19.60;87.80;;;;;;5043025;28;20033;-64